NCAR-RAP Real-Time Weather Data

Output produced by METARs form (14 October 2019  22:34 UTC)
found at http://weather.rap.ucar.edu/surface/
 
KILG 142151Z 26007KT 10SM CLR 22/06 A2996 RMK AO2 SLP145 T02220061
KILG 142051Z 23010KT 10SM CLR 23/07 A2994 RMK AO2 SLP139 T02330072 56014
KILG 141951Z 29006KT 10SM CLR 23/08 A2994 RMK AO2 SLP139 T02330078